createdAt,value
2019-02-07T00:01:21.664Z,20.75
2019-02-07T00:03:49.301Z,22.00
2019-02-07T00:06:19.775Z,23.12
2019-02-07T00:08:49.878Z,22.48
2019-02-07T00:11:18.275Z,22.00
2019-02-07T00:13:49.080Z,21.52
2019-02-07T00:16:17.016Z,22.30
2019-02-07T00:18:44.637Z,21.97
2019-02-07T00:21:12.300Z,21.95
2019-02-07T00:23:40.031Z,22.65
2019-02-07T00:26:07.712Z,21.93
2019-02-07T00:28:35.411Z,22.73
2019-02-07T00:31:03.378Z,22.00
2019-02-07T00:33:31.106Z,22.75
2019-02-07T00:35:58.842Z,22.30
2019-02-07T00:38:28.801Z,23.35
2019-02-07T00:40:57.031Z,22.52
2019-02-07T00:43:24.646Z,23.50
2019-02-07T00:45:52.718Z,22.95
2019-02-07T00:48:20.711Z,23.07
2019-02-07T00:50:48.814Z,22.93
2019-02-07T00:53:16.641Z,22.27
2019-02-07T00:55:44.365Z,22.85
2019-02-07T00:58:12.022Z,22.60
2019-02-07T01:00:40.208Z,20.95
2019-02-07T01:03:08.461Z,22.15
2019-02-07T01:05:36.276Z,21.70
2019-02-07T01:08:04.587Z,21.65
2019-02-07T01:10:32.336Z,22.65
2019-02-07T01:13:01.851Z,23.27
2019-02-07T01:15:29.889Z,22.07
2019-02-07T01:17:57.521Z,22.48
2019-02-07T01:20:25.257Z,22.75
2019-02-07T01:22:53.322Z,21.25
2019-02-07T01:25:21.223Z,21.57
2019-02-07T01:27:49.323Z,21.57
2019-02-07T01:30:19.198Z,21.73
2019-02-07T01:32:47.142Z,23.30
2019-02-07T01:35:14.957Z,22.20
2019-02-07T01:37:43.215Z,20.32
2019-02-07T01:40:13.905Z,22.42
2019-02-07T01:42:41.528Z,22.27
2019-02-07T01:45:12.988Z,22.60
2019-02-07T01:47:40.668Z,21.52
2019-02-07T01:50:10.452Z,21.05
2019-02-07T01:52:38.292Z,22.90
2019-02-07T01:55:06.464Z,22.17
2019-02-07T01:57:34.110Z,21.52
2019-02-07T02:00:02.202Z,20.65
2019-02-07T02:02:29.849Z,19.90
2019-02-07T02:04:57.661Z,20.25
2019-02-07T02:07:25.316Z,18.60
2019-02-07T02:09:55.290Z,19.92
2019-02-07T02:12:23.555Z,19.30
2019-02-07T02:14:51.534Z,19.52
2019-02-07T02:17:19.166Z,18.75
2019-02-07T02:19:46.862Z,20.60
2019-02-07T02:22:14.723Z,19.80
2019-02-07T02:24:45.122Z,19.70
2019-02-07T02:27:11.790Z,19.15
2019-02-07T02:29:39.435Z,19.37
2019-02-07T02:32:07.050Z,20.97
2019-02-07T02:34:36.571Z,20.30
2019-02-07T02:37:04.510Z,19.85
2019-02-07T02:39:32.189Z,18.23
2019-02-07T02:41:59.899Z,19.67
2019-02-07T02:44:27.660Z,19.55
2019-02-07T02:46:55.305Z,19.80
2019-02-07T02:49:22.952Z,19.35
2019-02-07T02:51:50.806Z,18.82
2019-02-07T02:54:37.433Z,17.35
2019-02-07T02:57:05.110Z,18.90
2019-02-07T02:59:33.327Z,19.15
2019-02-07T03:02:14.209Z,19.50
2019-02-07T03:04:59.934Z,19.52
2019-02-07T03:07:47.457Z,20.57
2019-02-07T03:10:37.172Z,20.52
2019-02-07T03:13:24.658Z,19.82
2019-02-07T03:16:04.528Z,19.02
2019-02-07T03:19:10.202Z,19.57
2019-02-07T03:21:47.251Z,19.45
2019-02-07T03:24:32.948Z,19.42
2019-02-07T03:27:23.488Z,20.43
2019-02-07T03:30:09.316Z,19.80
2019-02-07T03:32:56.775Z,19.82
2019-02-07T03:35:40.209Z,18.32
2019-02-07T03:38:15.002Z,19.52
2019-02-07T03:41:00.880Z,20.00
2019-02-07T03:43:42.299Z,19.37
2019-02-07T03:46:26.951Z,19.98
2019-02-07T03:49:02.702Z,19.37
2019-02-07T03:52:05.251Z,18.48
2019-02-07T03:54:51.079Z,21.17
2019-02-07T03:57:38.191Z,19.82
2019-02-07T04:00:21.052Z,18.23
2019-02-07T04:03:20.667Z,18.95
2019-02-07T04:06:16.897Z,18.07
2019-02-07T04:09:02.978Z,20.00
2019-02-07T04:11:48.702Z,24.40
2019-02-07T04:14:43.833Z,25.85
2019-02-07T04:17:36.665Z,21.73
2019-02-07T04:20:24.705Z,20.57
2019-02-07T04:23:10.548Z,24.07
2019-02-07T04:25:51.461Z,54.53
2019-02-07T04:28:41.229Z,35.50
2019-02-07T04:31:40.307Z,30.43
2019-02-07T04:34:36.987Z,19.23
2019-02-07T04:37:31.343Z,16.97
2019-02-07T04:40:20.672Z,17.87
2019-02-07T04:43:06.968Z,17.67
2019-02-07T04:46:00.108Z,18.15
2019-02-07T04:48:48.826Z,17.32
2019-02-07T04:51:34.268Z,16.37
2019-02-07T04:54:24.421Z,17.32
2019-02-07T04:57:10.130Z,17.30
2019-02-07T04:59:55.940Z,17.32
2019-02-07T05:02:45.835Z,17.45
2019-02-07T05:05:45.605Z,17.87
2019-02-07T05:08:23.804Z,16.65
2019-02-07T05:11:29.467Z,17.02
2019-02-07T05:14:28.632Z,18.45
2019-02-07T05:17:25.152Z,18.95
2019-02-07T05:20:10.722Z,19.02
2019-02-07T05:22:58.700Z,17.15
2019-02-07T05:25:54.259Z,16.93
2019-02-07T05:28:40.253Z,17.73
2019-02-07T05:31:38.410Z,17.55
2019-02-07T05:34:24.285Z,18.48
2019-02-07T05:37:10.761Z,17.73
2019-02-07T05:39:56.952Z,18.57
2019-02-07T05:42:43.058Z,19.30
2019-02-07T05:45:33.685Z,18.62
2019-02-07T05:48:26.723Z,18.20
2019-02-07T05:51:21.743Z,19.40
2019-02-07T05:54:22.379Z,18.23
2019-02-07T05:57:07.951Z,19.12
2019-02-07T05:59:55.119Z,18.20
2019-02-07T06:02:32.981Z,18.70
2019-02-07T06:05:19.910Z,18.37
2019-02-07T06:08:07.073Z,17.05
2019-02-07T06:10:48.573Z,19.90
2019-02-07T06:13:49.654Z,17.95
2019-02-07T06:16:35.344Z,17.55
2019-02-07T06:19:20.609Z,18.27
2019-02-07T06:22:27.940Z,18.67
2019-02-07T06:25:17.739Z,18.92
2019-02-07T06:28:04.911Z,17.98
2019-02-07T06:30:55.546Z,19.45
2019-02-07T06:33:42.701Z,20.17
2019-02-07T06:36:30.757Z,20.12
2019-02-07T06:39:13.700Z,19.07
2019-02-07T06:41:59.752Z,20.52
2019-02-07T06:44:45.819Z,19.40
2019-02-07T06:47:42.410Z,19.73
2019-02-07T06:50:29.338Z,18.42
2019-02-07T06:53:38.194Z,20.20
2019-02-07T06:56:25.408Z,17.92
2019-02-07T06:59:15.551Z,19.35
2019-02-07T07:01:59.713Z,19.62
2019-02-07T07:04:52.914Z,19.20
2019-02-07T07:07:40.996Z,19.42
2019-02-07T07:10:33.620Z,18.95
2019-02-07T07:13:18.714Z,19.82
2019-02-07T07:16:09.271Z,17.70
2019-02-07T07:19:08.235Z,21.68
2019-02-07T07:21:58.406Z,20.48
2019-02-07T07:24:38.952Z,19.70
2019-02-07T07:27:24.993Z,19.07
2019-02-07T07:30:18.051Z,20.17
2019-02-07T07:33:00.326Z,19.95
2019-02-07T07:35:47.625Z,20.68
2019-02-07T07:38:34.764Z,21.80
2019-02-07T07:41:21.934Z,20.48
2019-02-07T07:44:12.140Z,19.15
2019-02-07T07:47:15.279Z,20.95
2019-02-07T07:50:00.944Z,19.52
2019-02-07T07:52:56.610Z,18.60
2019-02-07T07:55:49.712Z,19.73
2019-02-07T07:58:51.748Z,21.33
2019-02-07T08:01:45.158Z,20.45
2019-02-07T08:04:37.329Z,20.90
2019-02-07T08:07:39.772Z,18.45
2019-02-07T08:13:52.986Z,19.90
2019-02-07T08:16:45.822Z,20.92
2019-02-07T08:19:41.719Z,21.00
2019-02-07T08:22:34.511Z,19.23
2019-02-07T08:25:25.255Z,21.25
2019-02-07T08:28:10.818Z,19.80
2019-02-07T08:30:57.585Z,22.22
2019-02-07T08:33:47.117Z,19.87
2019-02-07T08:36:52.152Z,21.60
2019-02-07T08:39:42.196Z,21.60
2019-02-07T08:42:28.192Z,28.30
2019-02-07T08:45:15.310Z,19.40
2019-02-07T08:48:06.634Z,22.40
2019-02-07T08:50:56.872Z,21.85
2019-02-07T08:53:42.213Z,21.00
2019-02-07T08:56:27.933Z,20.45
2019-02-07T08:59:15.290Z,20.40
2019-02-07T09:02:14.130Z,21.33
2019-02-07T09:05:09.958Z,21.75
2019-02-07T09:07:59.787Z,21.20
2019-02-07T09:10:49.650Z,21.70
2019-02-07T09:13:30.330Z,24.63
2019-02-07T09:16:12.595Z,20.27
2019-02-07T09:19:07.648Z,20.00
2019-02-07T09:21:58.548Z,22.58
2019-02-07T09:24:40.631Z,22.82
2019-02-07T09:27:33.858Z,22.20
2019-02-07T09:30:20.083Z,23.15
2019-02-07T09:33:05.897Z,23.67
2019-02-07T09:35:52.471Z,22.58
2019-02-07T09:38:57.754Z,22.55
2019-02-07T09:41:43.753Z,23.47
2019-02-07T09:44:24.109Z,28.98
2019-02-07T09:47:14.778Z,28.73
2019-02-07T09:50:04.831Z,23.15
2019-02-07T09:53:10.107Z,22.87
2019-02-07T09:56:03.606Z,22.67
2019-02-07T09:58:53.338Z,19.95
2019-02-07T10:01:32.903Z,17.70
2019-02-07T10:04:27.373Z,19.73
2019-02-07T10:07:21.024Z,24.37
2019-02-07T10:10:09.408Z,23.30
2019-02-07T10:13:07.162Z,24.35
2019-02-07T10:15:57.470Z,26.25
2019-02-07T10:18:48.248Z,22.60
2019-02-07T10:21:35.442Z,23.80
2019-02-07T10:24:41.164Z,24.15
2019-02-07T10:27:36.870Z,25.95
2019-02-07T10:30:27.454Z,24.30
2019-02-07T10:33:19.452Z,24.70
2019-02-07T10:36:05.187Z,23.57
2019-02-07T10:38:43.675Z,23.25
2019-02-07T10:41:33.120Z,22.70
2019-02-07T10:44:22.866Z,23.52
2019-02-07T10:47:14.573Z,21.10
2019-02-07T10:50:10.679Z,15.65
2019-02-07T10:53:00.851Z,21.10
2019-02-07T10:55:53.671Z,21.48
2019-02-07T10:58:55.415Z,20.70
2019-02-07T11:01:40.189Z,22.35
2019-02-07T11:04:32.003Z,17.85
2019-02-07T11:07:11.932Z,19.35
2019-02-07T11:10:11.279Z,21.02
2019-02-07T11:39:39.098Z,24.92
2019-02-07T11:42:31.787Z,22.20
2019-02-07T11:45:25.336Z,23.75
2019-02-07T11:48:07.025Z,24.63
2019-02-07T11:50:54.248Z,20.88
2019-02-07T11:53:39.590Z,22.67
2019-02-07T11:56:36.292Z,26.02
2019-02-07T11:59:27.055Z,22.80
2019-02-07T12:02:21.210Z,22.75
2019-02-07T12:05:17.027Z,22.32
2019-02-07T12:08:10.812Z,17.98
2019-02-07T12:11:05.027Z,22.77
2019-02-07T12:13:46.498Z,21.90
2019-02-07T12:16:36.236Z,22.58
2019-02-07T12:19:26.222Z,21.70
2019-02-07T12:22:17.464Z,21.57
2019-02-07T12:25:07.473Z,21.17
2019-02-07T12:28:12.400Z,22.25
2019-02-07T12:31:07.298Z,22.77
2019-02-07T12:33:57.700Z,22.13
2019-02-07T12:36:42.337Z,20.12
2019-02-07T12:39:36.600Z,22.07
2019-02-07T12:42:39.200Z,23.92
2019-02-07T12:45:29.048Z,22.25
2019-02-07T12:48:19.315Z,19.55
2019-02-07T12:51:17.932Z,22.27
2019-02-07T12:54:11.671Z,19.92
2019-02-07T12:57:07.466Z,22.82
2019-02-07T13:00:16.080Z,22.42
2019-02-07T13:03:06.276Z,23.77
2019-02-07T13:06:09.137Z,23.22
2019-02-07T13:08:58.972Z,22.55
2019-02-07T13:11:44.555Z,24.37
2019-02-07T13:14:38.462Z,24.57
2019-02-07T13:17:31.734Z,22.93
2019-02-07T13:20:10.562Z,24.02
2019-02-07T13:23:17.617Z,24.20
2019-02-07T13:25:58.018Z,23.40
2019-02-07T13:28:44.350Z,21.20
2019-02-07T13:31:46.997Z,20.97
2019-02-07T13:34:34.415Z,20.50
2019-02-07T13:37:14.497Z,19.53
2019-02-07T13:40:01.475Z,21.37
2019-02-07T13:42:50.543Z,25.17
2019-02-07T13:45:45.981Z,20.23
2019-02-07T13:48:26.058Z,22.07
2019-02-07T13:51:30.482Z,20.45
2019-02-07T13:54:24.500Z,21.10
2019-02-07T13:57:21.666Z,20.10
2019-02-07T14:00:12.274Z,21.70
2019-02-07T14:03:02.555Z,20.57
2019-02-07T14:06:07.370Z,20.03
2019-02-07T14:08:57.737Z,21.17
2019-02-07T14:11:45.077Z,20.57
2019-02-07T14:14:35.071Z,20.90
2019-02-07T14:17:16.797Z,20.27
2019-02-07T14:20:19.419Z,22.60
2019-02-07T14:23:04.877Z,20.35
2019-02-07T14:25:51.844Z,22.23
2019-02-07T14:28:37.803Z,23.40
2019-02-07T14:31:35.078Z,22.77
2019-02-07T14:34:29.325Z,20.93
2019-02-07T14:37:17.434Z,23.87
2019-02-07T14:40:22.376Z,24.30
2019-02-07T14:43:15.128Z,22.73
2019-02-07T14:45:52.330Z,22.13
2019-02-07T14:48:26.821Z,22.27
2019-02-07T14:50:55.281Z,24.90
2019-02-07T14:53:23.336Z,21.23
2019-02-07T14:55:51.433Z,25.13
2019-02-07T14:58:20.116Z,24.43
2019-02-07T15:00:49.807Z,23.15
2019-02-07T15:03:22.794Z,23.30
2019-02-07T15:05:50.623Z,22.73
2019-02-07T15:08:18.384Z,24.10
2019-02-07T15:10:46.297Z,19.67
2019-02-07T15:13:14.008Z,22.20
2019-02-07T15:15:42.305Z,24.87
2019-02-07T15:18:14.472Z,23.10
2019-02-07T15:20:42.407Z,22.57
2019-02-07T15:23:13.276Z,24.05
2019-02-07T15:25:50.264Z,25.10
2019-02-07T15:28:17.850Z,23.92
2019-02-07T15:30:46.081Z,22.73
2019-02-07T15:33:17.426Z,23.17
2019-02-07T15:35:50.228Z,24.57
2019-02-07T15:38:17.845Z,24.33
2019-02-07T15:40:48.532Z,24.83
2019-02-07T15:43:16.439Z,24.40
2019-02-07T15:45:44.383Z,22.13
2019-02-07T15:48:16.705Z,24.97
2019-02-07T15:50:45.484Z,24.60
2019-02-07T15:53:16.587Z,22.03
2019-02-07T15:55:56.124Z,24.40
2019-02-07T15:58:36.927Z,21.53
2019-02-07T16:01:11.709Z,24.37
2019-02-07T16:03:57.298Z,21.03
2019-02-07T16:06:25.221Z,21.70
2019-02-07T16:08:56.110Z,24.98
2019-02-07T16:11:24.594Z,20.60
2019-02-07T16:13:52.372Z,22.43
2019-02-07T16:16:23.469Z,24.87
2019-02-07T16:18:51.829Z,24.40
2019-02-07T16:21:20.511Z,23.67
2019-02-07T16:23:48.835Z,23.90
2019-02-07T16:26:16.848Z,25.87
2019-02-07T16:28:52.570Z,26.60
2019-02-07T16:31:20.135Z,24.07
2019-02-07T16:33:54.260Z,27.43
2019-02-07T16:36:25.501Z,23.13
2019-02-07T16:38:56.265Z,24.80
2019-02-07T16:41:27.869Z,24.67
2019-02-07T16:43:56.141Z,25.60
2019-02-07T16:46:26.631Z,25.20
2019-02-07T16:48:54.228Z,25.40
2019-02-07T16:51:23.204Z,23.93
2019-02-07T16:53:51.308Z,23.57
2019-02-07T16:56:19.096Z,20.90
2019-02-07T16:59:02.966Z,24.43
2019-02-07T17:01:33.471Z,25.30
2019-02-07T17:04:25.229Z,26.80
2019-02-07T17:06:55.425Z,20.93
2019-02-07T17:09:47.681Z,24.63
2019-02-07T17:12:41.399Z,26.73
2019-02-07T17:15:13.847Z,25.63
2019-02-07T17:17:58.383Z,25.63
2019-02-07T17:20:34.333Z,25.07
2019-02-07T17:23:02.161Z,25.30
2019-02-07T17:25:30.071Z,22.30
2019-02-07T17:27:59.121Z,25.07
2019-02-07T17:30:27.102Z,25.47
2019-02-07T17:32:56.906Z,26.53
2019-02-07T17:35:29.703Z,26.73
2019-02-07T17:38:00.730Z,27.60
2019-02-07T17:40:39.223Z,27.13
2019-02-07T17:43:14.181Z,27.53
2019-02-07T17:45:42.705Z,26.40
2019-02-07T17:48:10.500Z,25.93
2019-02-07T17:50:38.465Z,23.23
2019-02-07T17:53:09.735Z,22.60
2019-02-07T17:55:43.693Z,26.10
2019-02-07T17:58:15.902Z,24.93
2019-02-07T18:00:50.091Z,24.73
2019-02-07T18:03:18.354Z,27.60
2019-02-07T18:05:49.598Z,26.97
2019-02-07T18:08:17.811Z,25.27
2019-02-07T18:10:46.455Z,25.80
2019-02-07T18:13:14.708Z,25.70
2019-02-07T18:15:42.644Z,26.13
2019-02-07T18:18:11.166Z,26.03
2019-02-07T18:20:39.145Z,27.93
2019-02-07T18:23:10.007Z,24.97
2019-02-07T18:25:44.279Z,24.87
2019-02-07T18:28:11.972Z,26.17
2019-02-07T18:30:39.670Z,25.48
2019-02-07T18:33:07.558Z,28.67
2019-02-07T18:35:35.191Z,24.23
2019-02-07T18:38:05.267Z,27.57
2019-02-07T18:40:36.091Z,25.85
2019-02-07T18:43:05.480Z,26.30
2019-02-07T18:45:39.323Z,27.30
2019-02-07T18:48:10.093Z,26.30
2019-02-07T18:50:38.081Z,28.03
2019-02-07T18:53:08.533Z,27.43
2019-02-07T18:55:37.296Z,26.57
2019-02-07T18:58:10.362Z,26.55
2019-02-07T19:00:38.379Z,28.03
2019-02-07T19:03:18.531Z,26.63
2019-02-07T19:05:48.421Z,24.95
2019-02-07T19:08:17.350Z,25.65
2019-02-07T19:10:45.076Z,26.30
2019-02-07T19:13:12.716Z,27.17
2019-02-07T19:15:46.464Z,25.97
2019-02-07T19:18:14.302Z,25.63
2019-02-07T19:20:42.260Z,25.07
2019-02-07T19:23:12.665Z,25.00
2019-02-07T19:25:41.581Z,24.73
2019-02-07T19:28:09.442Z,23.47
2019-02-07T19:30:37.487Z,24.87
2019-02-07T19:33:05.465Z,24.57
2019-02-07T19:35:33.496Z,24.03
2019-02-07T19:38:01.842Z,22.70
2019-02-07T19:40:29.961Z,24.10
2019-02-07T19:43:00.235Z,24.07
2019-02-07T19:45:28.286Z,22.17
2019-02-07T19:47:56.225Z,22.77
2019-02-07T19:50:32.287Z,22.33
2019-02-07T19:53:03.142Z,24.73
2019-02-07T19:55:33.689Z,23.63
2019-02-07T19:58:06.064Z,21.13
2019-02-07T20:00:34.134Z,23.87
2019-02-07T20:03:07.748Z,23.97
2019-02-07T20:05:38.226Z,23.67
2019-02-07T20:08:05.831Z,22.87
2019-02-07T20:10:35.600Z,24.40
2019-02-07T20:13:14.309Z,25.47
2019-02-07T20:15:42.551Z,24.60
2019-02-07T20:18:13.395Z,24.83
2019-02-07T20:20:48.686Z,21.23
2019-02-07T20:23:16.853Z,25.30
2019-02-07T20:25:45.055Z,23.27
2019-02-07T20:28:14.602Z,22.23
2019-02-07T20:30:42.722Z,23.37
2019-02-07T20:33:11.912Z,21.70
2019-02-07T20:35:47.823Z,23.43
2019-02-07T20:38:18.342Z,22.43
2019-02-07T20:40:51.807Z,22.37
2019-02-07T20:43:23.169Z,21.73
2019-02-07T20:45:51.173Z,22.03
2019-02-07T20:48:21.850Z,22.17
2019-02-07T20:50:53.157Z,22.80
2019-02-07T20:53:33.345Z,22.07
2019-02-07T20:56:08.667Z,22.23
2019-02-07T20:58:36.826Z,19.63
2019-02-07T21:01:05.799Z,21.53
2019-02-07T21:03:36.350Z,22.13
2019-02-07T21:06:04.843Z,23.10
2019-02-07T21:08:32.896Z,21.67
2019-02-07T21:11:01.858Z,21.27
2019-02-07T21:13:30.254Z,20.87
2019-02-07T21:16:07.062Z,22.03
2019-02-07T21:18:41.471Z,22.27
2019-02-07T21:21:12.158Z,22.30
2019-02-07T21:23:41.108Z,20.80
2019-02-07T21:26:14.553Z,21.63
2019-02-07T21:28:42.649Z,21.87
2019-02-07T21:31:15.254Z,22.20
2019-02-07T21:33:47.665Z,22.07
2019-02-07T21:36:15.485Z,20.17
2019-02-07T21:38:43.436Z,20.73
2019-02-07T21:41:12.466Z,20.33
2019-02-07T21:43:43.574Z,19.40
2019-02-07T21:46:11.482Z,19.03
2019-02-07T21:48:40.119Z,20.53
2019-02-07T21:51:07.815Z,20.27
2019-02-07T21:53:36.169Z,20.03
2019-02-07T21:56:04.342Z,19.60
2019-02-07T21:58:35.411Z,19.53
2019-02-07T22:01:05.789Z,19.30
2019-02-07T22:03:33.470Z,19.83
2019-02-07T22:06:01.383Z,19.83
2019-02-07T22:08:33.184Z,18.67
2019-02-07T22:11:07.206Z,19.63
2019-02-07T22:13:35.066Z,18.77
2019-02-07T22:16:08.904Z,19.63
2019-02-07T22:18:39.611Z,18.13
2019-02-07T22:21:07.488Z,18.70
2019-02-07T22:23:35.738Z,17.33
2019-02-07T22:26:06.831Z,17.43
2019-02-07T22:28:35.576Z,17.53
2019-02-07T22:31:03.611Z,17.23
2019-02-07T22:33:31.493Z,17.20
2019-02-07T22:36:09.554Z,17.20
2019-02-07T22:38:38.180Z,17.53
2019-02-07T22:41:05.794Z,17.23
2019-02-07T22:43:33.767Z,18.20
2019-02-07T22:46:01.441Z,17.17
2019-02-07T22:48:34.710Z,15.93
2019-02-07T22:51:03.166Z,16.60
2019-02-07T22:53:31.318Z,16.13
2019-02-07T22:56:16.282Z,19.30
2019-02-07T22:58:43.969Z,14.80
2019-02-07T23:01:29.172Z,14.93
2019-02-07T23:04:02.292Z,14.93
2019-02-07T23:06:30.222Z,13.97
2019-02-07T23:08:58.632Z,14.97
2019-02-07T23:11:26.612Z,13.93
2019-02-07T23:13:54.725Z,13.60
2019-02-07T23:16:23.070Z,13.60
2019-02-07T23:18:50.931Z,13.23
2019-02-07T23:21:21.811Z,12.87
2019-02-07T23:23:49.729Z,12.27
2019-02-07T23:26:18.126Z,11.73
2019-02-07T23:28:46.293Z,10.20
2019-02-07T23:31:14.202Z,9.37
2019-02-07T23:33:42.151Z,9.87
2019-02-07T23:36:10.204Z,9.30
2019-02-07T23:38:38.613Z,9.23
2019-02-07T23:41:08.528Z,9.03
2019-02-07T23:43:37.557Z,8.50
2019-02-07T23:46:11.069Z,7.90
2019-02-07T23:48:39.148Z,8.87
2019-02-07T23:51:07.215Z,8.60
2019-02-07T23:53:37.597Z,7.60
2019-02-07T23:56:05.869Z,7.57
2019-02-07T23:58:36.680Z,8.50
